sensor_id;sensor_type;location;lat;lon;timestamp;P1;durP1;ratioP1;P2;durP2;ratioP2
46593;SDS011;35342;52.378;4.648;2023-03-14T00:01:16;15.18;;;3.42;;
46593;SDS011;35342;52.378;4.648;2023-03-14T00:03:45;14.57;;;2.60;;
46593;SDS011;35342;52.378;4.648;2023-03-14T00:06:11;14.35;;;2.40;;
46593;SDS011;35342;52.378;4.648;2023-03-14T00:08:37;14.35;;;4.43;;
46593;SDS011;35342;52.378;4.648;2023-03-14T00:11:07;20.05;;;2.88;;
46593;SDS011;35342;52.378;4.648;2023-03-14T00:13:46;12.10;;;2.28;;
46593;SDS011;35342;52.378;4.648;2023-03-14T00:16:16;11.60;;;2.47;;
46593;SDS011;35342;52.378;4.648;2023-03-14T00:18:41;13.35;;;3.40;;
46593;SDS011;35342;52.378;4.648;2023-03-14T00:21:07;7.90;;;2.20;;
46593;SDS011;35342;52.378;4.648;2023-03-14T00:23:35;14.05;;;2.67;;
46593;SDS011;35342;52.378;4.648;2023-03-14T00:26:04;9.07;;;2.10;;
46593;SDS011;35342;52.378;4.648;2023-03-14T00:28:33;10.30;;;2.13;;
46593;SDS011;35342;52.378;4.648;2023-03-14T00:31:02;16.67;;;2.53;;
46593;SDS011;35342;52.378;4.648;2023-03-14T00:33:29;15.00;;;2.63;;
46593;SDS011;35342;52.378;4.648;2023-03-14T00:35:56;10.30;;;2.78;;
46593;SDS011;35342;52.378;4.648;2023-03-14T00:38:29;11.68;;;2.65;;
46593;SDS011;35342;52.378;4.648;2023-03-14T00:40:57;15.80;;;2.63;;
46593;SDS011;35342;52.378;4.648;2023-03-14T00:43:23;16.65;;;3.10;;
46593;SDS011;35342;52.378;4.648;2023-03-14T00:45:50;20.45;;;3.40;;
46593;SDS011;35342;52.378;4.648;2023-03-14T00:48:18;14.65;;;3.28;;
46593;SDS011;35342;52.378;4.648;2023-03-14T00:50:45;14.73;;;2.92;;
46593;SDS011;35342;52.378;4.648;2023-03-14T00:53:11;18.33;;;4.25;;
46593;SDS011;35342;52.378;4.648;2023-03-14T00:55:38;16.52;;;2.63;;
46593;SDS011;35342;52.378;4.648;2023-03-14T00:58:05;15.73;;;3.25;;
46593;SDS011;35342;52.378;4.648;2023-03-14T01:00:32;15.57;;;2.83;;
46593;SDS011;35342;52.378;4.648;2023-03-14T01:02:58;23.95;;;3.88;;
46593;SDS011;35342;52.378;4.648;2023-03-14T01:05:23;17.73;;;4.20;;
46593;SDS011;35342;52.378;4.648;2023-03-14T01:07:50;15.68;;;3.17;;
46593;SDS011;35342;52.378;4.648;2023-03-14T01:10:16;19.48;;;3.95;;
46593;SDS011;35342;52.378;4.648;2023-03-14T01:12:42;17.55;;;3.22;;
46593;SDS011;35342;52.378;4.648;2023-03-14T01:15:08;14.95;;;3.67;;
46593;SDS011;35342;52.378;4.648;2023-03-14T01:17:34;13.05;;;3.17;;
46593;SDS011;35342;52.378;4.648;2023-03-14T01:20:02;26.02;;;3.47;;
46593;SDS011;35342;52.378;4.648;2023-03-14T01:22:29;20.33;;;3.40;;
46593;SDS011;35342;52.378;4.648;2023-03-14T01:24:55;27.10;;;5.45;;
46593;SDS011;35342;52.378;4.648;2023-03-14T01:27:21;29.15;;;3.17;;
46593;SDS011;35342;52.378;4.648;2023-03-14T01:29:47;23.83;;;4.90;;
46593;SDS011;35342;52.378;4.648;2023-03-14T01:32:13;16.27;;;3.22;;
46593;SDS011;35342;52.378;4.648;2023-03-14T01:34:38;18.85;;;4.30;;
46593;SDS011;35342;52.378;4.648;2023-03-14T01:37:04;22.00;;;4.18;;
46593;SDS011;35342;52.378;4.648;2023-03-14T01:39:32;19.58;;;3.13;;
46593;SDS011;35342;52.378;4.648;2023-03-14T01:41:59;22.52;;;4.95;;
46593;SDS011;35342;52.378;4.648;2023-03-14T01:44:25;20.20;;;3.83;;
46593;SDS011;35342;52.378;4.648;2023-03-14T01:46:51;18.25;;;3.58;;
46593;SDS011;35342;52.378;4.648;2023-03-14T01:54:33;20.67;;;3.20;;
46593;SDS011;35342;52.378;4.648;2023-03-14T01:59:46;22.75;;;3.25;;
46593;SDS011;35342;52.378;4.648;2023-03-14T02:02:23;16.25;;;4.43;;
46593;SDS011;35342;52.378;4.648;2023-03-14T02:04:51;18.05;;;3.15;;
46593;SDS011;35342;52.378;4.648;2023-03-14T02:07:20;24.02;;;4.40;;
46593;SDS011;35342;52.378;4.648;2023-03-14T02:09:52;20.10;;;2.90;;
46593;SDS011;35342;52.378;4.648;2023-03-14T02:12:21;21.75;;;4.20;;
46593;SDS011;35342;52.378;4.648;2023-03-14T02:14:47;24.40;;;3.45;;
46593;SDS011;35342;52.378;4.648;2023-03-14T02:17:13;15.13;;;2.90;;
46593;SDS011;35342;52.378;4.648;2023-03-14T02:22:49;12.68;;;3.90;;
46593;SDS011;35342;52.378;4.648;2023-03-14T02:25:24;16.15;;;3.38;;
46593;SDS011;35342;52.378;4.648;2023-03-14T02:28:30;11.38;;;2.85;;
46593;SDS011;35342;52.378;4.648;2023-03-14T02:30:56;8.75;;;2.63;;
46593;SDS011;35342;52.378;4.648;2023-03-14T02:33:22;13.38;;;3.50;;
46593;SDS011;35342;52.378;4.648;2023-03-14T02:38:31;17.77;;;3.97;;
46593;SDS011;35342;52.378;4.648;2023-03-14T02:41:28;10.02;;;3.67;;
46593;SDS011;35342;52.378;4.648;2023-03-14T02:43:55;17.05;;;2.70;;
46593;SDS011;35342;52.378;4.648;2023-03-14T02:46:21;11.75;;;1.98;;
46593;SDS011;35342;52.378;4.648;2023-03-14T02:49:07;15.50;;;2.80;;
46593;SDS011;35342;52.378;4.648;2023-03-14T02:51:37;15.55;;;2.78;;
46593;SDS011;35342;52.378;4.648;2023-03-14T02:54:05;18.25;;;4.95;;
46593;SDS011;35342;52.378;4.648;2023-03-14T02:56:31;15.13;;;2.80;;
46593;SDS011;35342;52.378;4.648;2023-03-14T02:58:56;14.43;;;3.22;;
46593;SDS011;35342;52.378;4.648;2023-03-14T03:01:22;12.40;;;4.20;;
46593;SDS011;35342;52.378;4.648;2023-03-14T03:03:49;9.73;;;1.88;;
46593;SDS011;35342;52.378;4.648;2023-03-14T03:06:15;14.15;;;4.00;;
46593;SDS011;35342;52.378;4.648;2023-03-14T03:08:41;13.88;;;3.88;;
46593;SDS011;35342;52.378;4.648;2023-03-14T03:11:06;14.32;;;3.38;;
46593;SDS011;35342;52.378;4.648;2023-03-14T03:13:33;13.15;;;2.50;;
46593;SDS011;35342;52.378;4.648;2023-03-14T03:15:59;16.52;;;2.85;;
46593;SDS011;35342;52.378;4.648;2023-03-14T03:18:25;11.48;;;2.10;;
46593;SDS011;35342;52.378;4.648;2023-03-14T03:20:51;14.57;;;2.75;;
46593;SDS011;35342;52.378;4.648;2023-03-14T03:23:16;9.88;;;2.33;;
46593;SDS011;35342;52.378;4.648;2023-03-14T03:25:47;15.10;;;3.10;;
46593;SDS011;35342;52.378;4.648;2023-03-14T03:28:16;13.43;;;2.13;;
46593;SDS011;35342;52.378;4.648;2023-03-14T03:30:42;8.75;;;2.17;;
46593;SDS011;35342;52.378;4.648;2023-03-14T03:33:09;13.25;;;2.40;;
46593;SDS011;35342;52.378;4.648;2023-03-14T03:35:54;12.43;;;2.53;;
46593;SDS011;35342;52.378;4.648;2023-03-14T03:38:20;10.10;;;2.83;;
46593;SDS011;35342;52.378;4.648;2023-03-14T03:40:45;11.48;;;2.05;;
46593;SDS011;35342;52.378;4.648;2023-03-14T03:43:11;13.15;;;3.20;;
46593;SDS011;35342;52.378;4.648;2023-03-14T03:45:37;10.88;;;3.13;;
46593;SDS011;35342;52.378;4.648;2023-03-14T03:48:03;15.68;;;3.95;;
46593;SDS011;35342;52.378;4.648;2023-03-14T03:50:29;9.48;;;4.20;;
46593;SDS011;35342;52.378;4.648;2023-03-14T03:52:54;14.30;;;4.30;;
46593;SDS011;35342;52.378;4.648;2023-03-14T03:55:20;14.57;;;3.58;;
46593;SDS011;35342;52.378;4.648;2023-03-14T03:57:46;12.18;;;2.65;;
46593;SDS011;35342;52.378;4.648;2023-03-14T04:00:12;14.45;;;3.33;;
46593;SDS011;35342;52.378;4.648;2023-03-14T04:02:38;13.02;;;2.78;;
46593;SDS011;35342;52.378;4.648;2023-03-14T04:05:03;10.93;;;3.30;;
46593;SDS011;35342;52.378;4.648;2023-03-14T04:07:31;10.27;;;2.22;;
46593;SDS011;35342;52.378;4.648;2023-03-14T04:09:58;9.80;;;2.90;;
46593;SDS011;35342;52.378;4.648;2023-03-14T04:12:23;10.18;;;2.95;;
46593;SDS011;35342;52.378;4.648;2023-03-14T04:14:49;17.85;;;3.85;;
46593;SDS011;35342;52.378;4.648;2023-03-14T04:17:15;13.80;;;3.22;;
46593;SDS011;35342;52.378;4.648;2023-03-14T04:19:41;12.45;;;3.38;;
46593;SDS011;35342;52.378;4.648;2023-03-14T04:22:07;16.42;;;3.88;;
46593;SDS011;35342;52.378;4.648;2023-03-14T04:24:34;13.55;;;2.80;;
46593;SDS011;35342;52.378;4.648;2023-03-14T04:27:00;9.90;;;2.80;;
46593;SDS011;35342;52.378;4.648;2023-03-14T04:29:25;11.75;;;2.88;;
46593;SDS011;35342;52.378;4.648;2023-03-14T04:31:51;12.82;;;3.10;;
46593;SDS011;35342;52.378;4.648;2023-03-14T04:34:17;14.70;;;3.65;;
46593;SDS011;35342;52.378;4.648;2023-03-14T04:36:43;8.90;;;2.63;;
46593;SDS011;35342;52.378;4.648;2023-03-14T04:39:08;10.68;;;3.10;;
46593;SDS011;35342;52.378;4.648;2023-03-14T04:41:34;9.73;;;2.40;;
46593;SDS011;35342;52.378;4.648;2023-03-14T04:44:00;11.05;;;2.20;;
46593;SDS011;35342;52.378;4.648;2023-03-14T04:46:25;15.18;;;3.38;;
46593;SDS011;35342;52.378;4.648;2023-03-14T04:48:51;15.20;;;2.45;;
46593;SDS011;35342;52.378;4.648;2023-03-14T04:51:17;13.00;;;3.50;;
46593;SDS011;35342;52.378;4.648;2023-03-14T04:53:43;11.48;;;3.58;;
46593;SDS011;35342;52.378;4.648;2023-03-14T04:56:08;4.35;;;1.77;;
46593;SDS011;35342;52.378;4.648;2023-03-14T04:58:34;12.38;;;3.38;;
46593;SDS011;35342;52.378;4.648;2023-03-14T05:01:03;10.35;;;2.35;;
46593;SDS011;35342;52.378;4.648;2023-03-14T05:03:31;9.52;;;2.58;;
46593;SDS011;35342;52.378;4.648;2023-03-14T05:05:56;9.70;;;1.92;;
46593;SDS011;35342;52.378;4.648;2023-03-14T05:08:23;16.15;;;2.05;;
46593;SDS011;35342;52.378;4.648;2023-03-14T05:10:53;16.77;;;3.50;;
46593;SDS011;35342;52.378;4.648;2023-03-14T05:13:21;9.35;;;2.88;;
46593;SDS011;35342;52.378;4.648;2023-03-14T05:15:47;9.13;;;2.75;;
46593;SDS011;35342;52.378;4.648;2023-03-14T05:18:13;9.40;;;2.10;;
46593;SDS011;35342;52.378;4.648;2023-03-14T05:20:39;6.10;;;1.60;;
46593;SDS011;35342;52.378;4.648;2023-03-14T05:23:04;4.95;;;1.80;;
46593;SDS011;35342;52.378;4.648;2023-03-14T05:25:30;5.53;;;1.33;;
46593;SDS011;35342;52.378;4.648;2023-03-14T05:27:56;13.27;;;2.33;;
46593;SDS011;35342;52.378;4.648;2023-03-14T05:30:22;4.32;;;1.42;;
46593;SDS011;35342;52.378;4.648;2023-03-14T05:32:48;8.82;;;3.10;;
46593;SDS011;35342;52.378;4.648;2023-03-14T05:35:13;7.82;;;1.48;;
46593;SDS011;35342;52.378;4.648;2023-03-14T05:37:40;6.65;;;1.95;;
46593;SDS011;35342;52.378;4.648;2023-03-14T05:40:06;3.72;;;1.38;;
46593;SDS011;35342;52.378;4.648;2023-03-14T05:42:33;8.43;;;1.42;;
46593;SDS011;35342;52.378;4.648;2023-03-14T05:44:59;6.80;;;1.20;;
46593;SDS011;35342;52.378;4.648;2023-03-14T05:47:25;11.70;;;2.30;;
46593;SDS011;35342;52.378;4.648;2023-03-14T05:49:51;7.05;;;1.52;;
46593;SDS011;35342;52.378;4.648;2023-03-14T05:52:17;11.02;;;1.40;;
46593;SDS011;35342;52.378;4.648;2023-03-14T05:54:43;7.78;;;2.22;;
46593;SDS011;35342;52.378;4.648;2023-03-14T05:57:08;15.90;;;1.20;;
46593;SDS011;35342;52.378;4.648;2023-03-14T05:59:34;10.07;;;2.15;;
46593;SDS011;35342;52.378;4.648;2023-03-14T06:02:00;5.32;;;1.10;;
46593;SDS011;35342;52.378;4.648;2023-03-14T06:04:26;6.30;;;1.42;;
46593;SDS011;35342;52.378;4.648;2023-03-14T06:06:52;3.95;;;0.82;;
46593;SDS011;35342;52.378;4.648;2023-03-14T06:09:17;12.00;;;1.80;;
46593;SDS011;35342;52.378;4.648;2023-03-14T06:11:44;6.43;;;1.30;;
46593;SDS011;35342;52.378;4.648;2023-03-14T06:14:11;5.65;;;2.17;;
46593;SDS011;35342;52.378;4.648;2023-03-14T06:16:37;5.00;;;1.33;;
46593;SDS011;35342;52.378;4.648;2023-03-14T06:19:03;7.97;;;1.20;;
46593;SDS011;35342;52.378;4.648;2023-03-14T06:21:29;6.53;;;1.10;;
46593;SDS011;35342;52.378;4.648;2023-03-14T06:23:55;2.85;;;0.65;;
46593;SDS011;35342;52.378;4.648;2023-03-14T06:26:20;8.43;;;1.08;;
46593;SDS011;35342;52.378;4.648;2023-03-14T06:28:48;8.35;;;0.90;;
46593;SDS011;35342;52.378;4.648;2023-03-14T06:31:14;2.95;;;0.98;;
46593;SDS011;35342;52.378;4.648;2023-03-14T06:33:39;2.70;;;1.05;;
46593;SDS011;35342;52.378;4.648;2023-03-14T06:36:05;7.63;;;1.00;;
46593;SDS011;35342;52.378;4.648;2023-03-14T06:38:32;3.75;;;0.90;;
46593;SDS011;35342;52.378;4.648;2023-03-14T06:41:02;6.10;;;1.33;;
46593;SDS011;35342;52.378;4.648;2023-03-14T06:43:32;7.47;;;1.67;;
46593;SDS011;35342;52.378;4.648;2023-03-14T06:45:58;2.65;;;1.00;;
46593;SDS011;35342;52.378;4.648;2023-03-14T06:48:24;4.85;;;0.95;;
46593;SDS011;35342;52.378;4.648;2023-03-14T06:50:50;6.88;;;0.90;;
46593;SDS011;35342;52.378;4.648;2023-03-14T06:53:16;3.72;;;0.80;;
46593;SDS011;35342;52.378;4.648;2023-03-14T06:55:41;6.60;;;0.88;;
46593;SDS011;35342;52.378;4.648;2023-03-14T06:58:08;2.53;;;0.80;;
46593;SDS011;35342;52.378;4.648;2023-03-14T07:00:34;9.55;;;1.92;;
46593;SDS011;35342;52.378;4.648;2023-03-14T07:03:00;14.27;;;2.72;;
46593;SDS011;35342;52.378;4.648;2023-03-14T07:05:26;8.60;;;2.08;;
46593;SDS011;35342;52.378;4.648;2023-03-14T07:07:51;9.85;;;1.75;;
46593;SDS011;35342;52.378;4.648;2023-03-14T07:10:17;15.57;;;2.00;;
46593;SDS011;35342;52.378;4.648;2023-03-14T07:12:43;12.25;;;2.33;;
46593;SDS011;35342;52.378;4.648;2023-03-14T07:15:09;14.65;;;2.10;;
46593;SDS011;35342;52.378;4.648;2023-03-14T07:17:35;8.00;;;1.50;;
46593;SDS011;35342;52.378;4.648;2023-03-14T07:20:01;6.93;;;1.25;;
46593;SDS011;35342;52.378;4.648;2023-03-14T07:22:29;5.32;;;1.17;;
46593;SDS011;35342;52.378;4.648;2023-03-14T07:24:55;8.60;;;2.72;;
46593;SDS011;35342;52.378;4.648;2023-03-14T07:27:21;4.13;;;1.00;;
46593;SDS011;35342;52.378;4.648;2023-03-14T07:29:46;5.45;;;1.48;;
46593;SDS011;35342;52.378;4.648;2023-03-14T07:32:12;1.60;;;0.45;;
46593;SDS011;35342;52.378;4.648;2023-03-14T07:34:40;4.45;;;1.70;;
46593;SDS011;35342;52.378;4.648;2023-03-14T07:37:07;4.97;;;1.00;;
46593;SDS011;35342;52.378;4.648;2023-03-14T07:39:32;3.22;;;0.80;;
46593;SDS011;35342;52.378;4.648;2023-03-14T07:41:59;2.67;;;0.60;;
46593;SDS011;35342;52.378;4.648;2023-03-14T07:44:25;1.73;;;0.90;;
46593;SDS011;35342;52.378;4.648;2023-03-14T07:46:51;2.92;;;1.15;;
46593;SDS011;35342;52.378;4.648;2023-03-14T07:49:17;6.28;;;1.30;;
46593;SDS011;35342;52.378;4.648;2023-03-14T07:51:43;6.55;;;0.68;;
46593;SDS011;35342;52.378;4.648;2023-03-14T07:54:14;6.10;;;0.85;;
46593;SDS011;35342;52.378;4.648;2023-03-14T07:56:40;5.78;;;0.90;;
46593;SDS011;35342;52.378;4.648;2023-03-14T07:59:06;6.95;;;1.80;;
46593;SDS011;35342;52.378;4.648;2023-03-14T08:01:32;3.78;;;1.00;;
46593;SDS011;35342;52.378;4.648;2023-03-14T08:03:58;4.13;;;0.88;;
46593;SDS011;35342;52.378;4.648;2023-03-14T08:06:24;7.40;;;1.10;;
46593;SDS011;35342;52.378;4.648;2023-03-14T08:08:50;6.68;;;1.33;;
46593;SDS011;35342;52.378;4.648;2023-03-14T08:11:16;5.22;;;0.98;;
46593;SDS011;35342;52.378;4.648;2023-03-14T08:13:41;5.03;;;1.10;;
46593;SDS011;35342;52.378;4.648;2023-03-14T08:16:14;3.58;;;1.05;;
46593;SDS011;35342;52.378;4.648;2023-03-14T08:18:42;11.32;;;2.35;;
46593;SDS011;35342;52.378;4.648;2023-03-14T08:21:09;8.68;;;1.88;;
46593;SDS011;35342;52.378;4.648;2023-03-14T08:23:36;3.25;;;1.75;;
46593;SDS011;35342;52.378;4.648;2023-03-14T08:26:02;14.90;;;1.77;;
46593;SDS011;35342;52.378;4.648;2023-03-14T08:28:27;26.15;;;2.08;;
46593;SDS011;35342;52.378;4.648;2023-03-14T08:30:56;4.55;;;1.48;;
46593;SDS011;35342;52.378;4.648;2023-03-14T08:33:22;14.75;;;2.85;;
46593;SDS011;35342;52.378;4.648;2023-03-14T08:35:51;8.30;;;2.15;;
46593;SDS011;35342;52.378;4.648;2023-03-14T08:38:18;12.18;;;1.52;;
46593;SDS011;35342;52.378;4.648;2023-03-14T08:40:44;14.25;;;2.00;;
46593;SDS011;35342;52.378;4.648;2023-03-14T08:43:09;12.93;;;2.45;;
46593;SDS011;35342;52.378;4.648;2023-03-14T08:45:35;14.82;;;4.10;;
46593;SDS011;35342;52.378;4.648;2023-03-14T08:48:01;12.50;;;3.03;;
46593;SDS011;35342;52.378;4.648;2023-03-14T08:50:28;10.65;;;2.28;;
46593;SDS011;35342;52.378;4.648;2023-03-14T08:52:53;14.13;;;2.92;;
46593;SDS011;35342;52.378;4.648;2023-03-14T08:55:19;19.27;;;3.03;;
46593;SDS011;35342;52.378;4.648;2023-03-14T08:57:45;18.45;;;3.38;;
46593;SDS011;35342;52.378;4.648;2023-03-14T09:00:11;8.95;;;2.45;;
46593;SDS011;35342;52.378;4.648;2023-03-14T09:02:40;6.25;;;1.63;;
46593;SDS011;35342;52.378;4.648;2023-03-14T09:05:08;16.05;;;2.17;;
46593;SDS011;35342;52.378;4.648;2023-03-14T09:07:35;10.23;;;2.63;;
46593;SDS011;35342;52.378;4.648;2023-03-14T09:10:01;11.90;;;1.92;;
46593;SDS011;35342;52.378;4.648;2023-03-14T09:12:28;19.50;;;3.40;;
46593;SDS011;35342;52.378;4.648;2023-03-14T09:14:53;13.68;;;2.35;;
46593;SDS011;35342;52.378;4.648;2023-03-14T09:17:19;10.52;;;2.35;;
46593;SDS011;35342;52.378;4.648;2023-03-14T09:19:45;12.60;;;2.75;;
46593;SDS011;35342;52.378;4.648;2023-03-14T09:22:10;22.75;;;2.58;;
46593;SDS011;35342;52.378;4.648;2023-03-14T09:24:36;16.73;;;3.65;;
46593;SDS011;35342;52.378;4.648;2023-03-14T09:27:02;18.85;;;2.53;;
46593;SDS011;35342;52.378;4.648;2023-03-14T09:29:28;23.98;;;6.05;;
46593;SDS011;35342;52.378;4.648;2023-03-14T09:31:53;17.40;;;2.42;;
46593;SDS011;35342;52.378;4.648;2023-03-14T09:34:19;19.52;;;3.08;;
46593;SDS011;35342;52.378;4.648;2023-03-14T09:36:45;13.88;;;3.67;;
46593;SDS011;35342;52.378;4.648;2023-03-14T09:39:11;17.77;;;3.25;;
46593;SDS011;35342;52.378;4.648;2023-03-14T09:41:37;18.85;;;3.38;;
46593;SDS011;35342;52.378;4.648;2023-03-14T09:47:05;16.52;;;3.13;;
46593;SDS011;35342;52.378;4.648;2023-03-14T09:49:39;30.98;;;5.20;;
46593;SDS011;35342;52.378;4.648;2023-03-14T09:52:13;16.40;;;2.50;;
46593;SDS011;35342;52.378;4.648;2023-03-14T09:54:54;23.88;;;3.63;;
46593;SDS011;35342;52.378;4.648;2023-03-14T09:57:28;8.70;;;2.40;;
46593;SDS011;35342;52.378;4.648;2023-03-14T10:00:02;17.15;;;3.05;;
46593;SDS011;35342;52.378;4.648;2023-03-14T10:03:36;15.63;;;3.67;;
46593;SDS011;35342;52.378;4.648;2023-03-14T10:05:37;18.55;;;3.45;;
46593;SDS011;35342;52.378;4.648;2023-03-14T10:08:04;16.15;;;3.10;;
46593;SDS011;35342;52.378;4.648;2023-03-14T10:10:30;14.27;;;2.90;;
46593;SDS011;35342;52.378;4.648;2023-03-14T10:15:26;11.38;;;3.15;;
46593;SDS011;35342;52.378;4.648;2023-03-14T10:17:58;17.10;;;3.38;;
46593;SDS011;35342;52.378;4.648;2023-03-14T10:23:04;29.33;;;3.15;;
46593;SDS011;35342;52.378;4.648;2023-03-14T10:26:12;14.40;;;4.10;;
46593;SDS011;35342;52.378;4.648;2023-03-14T10:28:45;18.95;;;2.70;;
46593;SDS011;35342;52.378;4.648;2023-03-14T10:31:16;14.25;;;3.47;;
46593;SDS011;35342;52.378;4.648;2023-03-14T10:33:42;9.88;;;2.42;;
46593;SDS011;35342;52.378;4.648;2023-03-14T10:36:28;13.68;;;2.25;;
46593;SDS011;35342;52.378;4.648;2023-03-14T10:38:57;9.77;;;1.98;;
46593;SDS011;35342;52.378;4.648;2023-03-14T10:41:54;8.20;;;2.08;;
46593;SDS011;35342;52.378;4.648;2023-03-14T10:44:29;10.63;;;2.13;;
46593;SDS011;35342;52.378;4.648;2023-03-14T10:47:00;10.32;;;2.67;;
46593;SDS011;35342;52.378;4.648;2023-03-14T10:52:02;15.35;;;2.58;;
46593;SDS011;35342;52.378;4.648;2023-03-14T10:54:33;13.15;;;2.28;;
46593;SDS011;35342;52.378;4.648;2023-03-14T10:57:00;11.30;;;2.22;;
46593;SDS011;35342;52.378;4.648;2023-03-14T10:59:31;12.25;;;2.85;;
46593;SDS011;35342;52.378;4.648;2023-03-14T11:05:03;9.43;;;1.90;;
46593;SDS011;35342;52.378;4.648;2023-03-14T11:07:35;12.35;;;1.60;;
46593;SDS011;35342;52.378;4.648;2023-03-14T11:15:45;8.77;;;1.52;;
46593;SDS011;35342;52.378;4.648;2023-03-14T11:22:14;9.35;;;1.75;;
46593;SDS011;35342;52.378;4.648;2023-03-14T11:25:01;7.07;;;1.42;;
46593;SDS011;35342;52.378;4.648;2023-03-14T11:27:43;11.98;;;1.92;;
46593;SDS011;35342;52.378;4.648;2023-03-14T11:30:25;11.07;;;2.13;;
46593;SDS011;35342;52.378;4.648;2023-03-14T11:33:08;4.95;;;1.40;;
46593;SDS011;35342;52.378;4.648;2023-03-14T11:35:55;5.03;;;1.55;;
46593;SDS011;35342;52.378;4.648;2023-03-14T11:41:52;11.05;;;1.45;;
46593;SDS011;35342;52.378;4.648;2023-03-14T11:44:18;6.72;;;1.58;;
46593;SDS011;35342;52.378;4.648;2023-03-14T11:46:59;6.85;;;1.90;;
46593;SDS011;35342;52.378;4.648;2023-03-14T11:50:03;8.52;;;1.83;;
46593;SDS011;35342;52.378;4.648;2023-03-14T11:52:58;13.38;;;1.90;;
46593;SDS011;35342;52.378;4.648;2023-03-14T11:55:39;8.00;;;1.52;;
46593;SDS011;35342;52.378;4.648;2023-03-14T11:58:26;9.00;;;1.17;;
46593;SDS011;35342;52.378;4.648;2023-03-14T12:00:56;5.75;;;1.40;;
46593;SDS011;35342;52.378;4.648;2023-03-14T12:03:35;3.42;;;1.02;;
46593;SDS011;35342;52.378;4.648;2023-03-14T12:06:22;5.75;;;1.63;;
46593;SDS011;35342;52.378;4.648;2023-03-14T12:09:20;12.30;;;1.27;;
46593;SDS011;35342;52.378;4.648;2023-03-14T12:11:50;8.30;;;1.95;;
46593;SDS011;35342;52.378;4.648;2023-03-14T12:17:07;7.18;;;1.27;;
46593;SDS011;35342;52.378;4.648;2023-03-14T12:19:43;7.25;;;1.83;;
46593;SDS011;35342;52.378;4.648;2023-03-14T12:24:59;5.13;;;1.50;;
46593;SDS011;35342;52.378;4.648;2023-03-14T12:27:49;4.28;;;1.50;;
46593;SDS011;35342;52.378;4.648;2023-03-14T12:35:52;8.43;;;1.20;;
46593;SDS011;35342;52.378;4.648;2023-03-14T12:38:37;3.65;;;1.45;;
46593;SDS011;35342;52.378;4.648;2023-03-14T12:41:19;8.77;;;1.65;;
46593;SDS011;35342;52.378;4.648;2023-03-14T12:43:48;8.60;;;2.55;;
46593;SDS011;35342;52.378;4.648;2023-03-14T12:51:37;13.90;;;1.92;;
46593;SDS011;35342;52.378;4.648;2023-03-14T13:00:33;3.45;;;1.42;;
46593;SDS011;35342;52.378;4.648;2023-03-14T13:03:17;8.55;;;1.83;;
46593;SDS011;35342;52.378;4.648;2023-03-14T13:05:53;6.15;;;1.50;;
46593;SDS011;35342;52.378;4.648;2023-03-14T13:08:42;4.85;;;1.58;;
46593;SDS011;35342;52.378;4.648;2023-03-14T13:11:19;3.85;;;1.10;;
46593;SDS011;35342;52.378;4.648;2023-03-14T13:13:49;8.02;;;1.48;;
46593;SDS011;35342;52.378;4.648;2023-03-14T13:16:22;5.07;;;1.00;;
46593;SDS011;35342;52.378;4.648;2023-03-14T13:18:49;6.80;;;1.00;;
46593;SDS011;35342;52.378;4.648;2023-03-14T13:21:27;4.95;;;1.08;;
46593;SDS011;35342;52.378;4.648;2023-03-14T13:24:00;12.65;;;1.42;;
46593;SDS011;35342;52.378;4.648;2023-03-14T13:26:36;8.82;;;1.27;;
46593;SDS011;35342;52.378;4.648;2023-03-14T13:29:20;4.90;;;0.80;;
46593;SDS011;35342;52.378;4.648;2023-03-14T13:31:53;10.20;;;1.55;;
46593;SDS011;35342;52.378;4.648;2023-03-14T13:34:25;6.35;;;1.48;;
46593;SDS011;35342;52.378;4.648;2023-03-14T13:36:56;9.05;;;1.55;;
46593;SDS011;35342;52.378;4.648;2023-03-14T13:39:23;3.53;;;1.00;;
46593;SDS011;35342;52.378;4.648;2023-03-14T13:41:53;6.03;;;1.65;;
46593;SDS011;35342;52.378;4.648;2023-03-14T13:47:04;4.47;;;1.15;;
46593;SDS011;35342;52.378;4.648;2023-03-14T13:49:39;5.68;;;1.23;;
46593;SDS011;35342;52.378;4.648;2023-03-14T13:52:20;6.03;;;1.30;;
46593;SDS011;35342;52.378;4.648;2023-03-14T13:54:47;5.60;;;1.27;;
46593;SDS011;35342;52.378;4.648;2023-03-14T13:57:13;6.38;;;1.67;;
46593;SDS011;35342;52.378;4.648;2023-03-14T13:59:38;3.88;;;1.20;;
46593;SDS011;35342;52.378;4.648;2023-03-14T14:02:06;8.40;;;1.35;;
46593;SDS011;35342;52.378;4.648;2023-03-14T14:04:39;3.65;;;0.93;;
46593;SDS011;35342;52.378;4.648;2023-03-14T14:07:09;4.22;;;1.08;;
46593;SDS011;35342;52.378;4.648;2023-03-14T14:09:50;7.15;;;1.25;;
46593;SDS011;35342;52.378;4.648;2023-03-14T14:15:02;5.93;;;1.23;;
46593;SDS011;35342;52.378;4.648;2023-03-14T14:20:22;2.35;;;0.98;;
46593;SDS011;35342;52.378;4.648;2023-03-14T14:22:59;8.93;;;1.20;;
46593;SDS011;35342;52.378;4.648;2023-03-14T14:25:32;13.77;;;1.87;;
46593;SDS011;35342;52.378;4.648;2023-03-14T14:27:58;5.47;;;1.42;;
46593;SDS011;35342;52.378;4.648;2023-03-14T14:30:26;7.50;;;1.35;;
46593;SDS011;35342;52.378;4.648;2023-03-14T14:33:11;8.50;;;1.52;;
46593;SDS011;35342;52.378;4.648;2023-03-14T14:35:53;4.18;;;1.17;;
46593;SDS011;35342;52.378;4.648;2023-03-14T14:38:23;8.88;;;1.25;;
46593;SDS011;35342;52.378;4.648;2023-03-14T14:40:50;5.85;;;1.17;;
46593;SDS011;35342;52.378;4.648;2023-03-14T14:43:24;10.60;;;2.25;;
46593;SDS011;35342;52.378;4.648;2023-03-14T14:45:54;3.72;;;0.88;;
46593;SDS011;35342;52.378;4.648;2023-03-14T14:48:25;4.45;;;1.58;;
46593;SDS011;35342;52.378;4.648;2023-03-14T14:50:57;5.70;;;1.23;;
46593;SDS011;35342;52.378;4.648;2023-03-14T14:53:39;9.40;;;1.20;;
46593;SDS011;35342;52.378;4.648;2023-03-14T14:56:07;10.20;;;1.85;;
46593;SDS011;35342;52.378;4.648;2023-03-14T14:58:50;6.32;;;1.65;;
46593;SDS011;35342;52.378;4.648;2023-03-14T15:01:23;9.05;;;1.55;;
46593;SDS011;35342;52.378;4.648;2023-03-14T15:03:51;12.85;;;2.03;;
46593;SDS011;35342;52.378;4.648;2023-03-14T15:06:19;6.75;;;1.17;;
46593;SDS011;35342;52.378;4.648;2023-03-14T15:08:47;6.38;;;1.52;;
46593;SDS011;35342;52.378;4.648;2023-03-14T15:11:16;6.28;;;1.50;;
46593;SDS011;35342;52.378;4.648;2023-03-14T15:13:47;9.20;;;1.50;;
46593;SDS011;35342;52.378;4.648;2023-03-14T15:16:18;7.63;;;1.40;;
46593;SDS011;35342;52.378;4.648;2023-03-14T15:18:56;5.05;;;1.30;;
46593;SDS011;35342;52.378;4.648;2023-03-14T15:21:25;10.90;;;2.25;;
46593;SDS011;35342;52.378;4.648;2023-03-14T15:23:53;14.20;;;2.63;;
46593;SDS011;35342;52.378;4.648;2023-03-14T15:26:20;6.47;;;1.35;;
46593;SDS011;35342;52.378;4.648;2023-03-14T15:28:49;5.75;;;1.20;;
46593;SDS011;35342;52.378;4.648;2023-03-14T15:31:16;6.30;;;1.40;;
46593;SDS011;35342;52.378;4.648;2023-03-14T15:33:44;6.45;;;1.70;;
46593;SDS011;35342;52.378;4.648;2023-03-14T15:36:23;2.70;;;0.95;;
46593;SDS011;35342;52.378;4.648;2023-03-14T15:38:53;7.47;;;1.20;;
46593;SDS011;35342;52.378;4.648;2023-03-14T15:41:21;8.40;;;1.20;;
46593;SDS011;35342;52.378;4.648;2023-03-14T15:43:48;7.85;;;1.70;;
46593;SDS011;35342;52.378;4.648;2023-03-14T15:46:14;2.28;;;1.20;;
46593;SDS011;35342;52.378;4.648;2023-03-14T15:48:42;6.63;;;1.83;;
46593;SDS011;35342;52.378;4.648;2023-03-14T15:51:11;6.70;;;1.73;;
46593;SDS011;35342;52.378;4.648;2023-03-14T15:53:38;11.15;;;1.65;;
46593;SDS011;35342;52.378;4.648;2023-03-14T15:56:04;8.90;;;1.05;;
46593;SDS011;35342;52.378;4.648;2023-03-14T15:58:32;6.15;;;1.30;;
46593;SDS011;35342;52.378;4.648;2023-03-14T16:01:02;4.10;;;1.20;;
46593;SDS011;35342;52.378;4.648;2023-03-14T16:03:28;20.40;;;7.47;;
46593;SDS011;35342;52.378;4.648;2023-03-14T16:05:54;10.68;;;2.03;;